Time;durP1;ratioP1;P1;durP2;ratioP2;P2;SDS_P1;SDS_P2;PMS_P1;PMS_P2;Temp;Humidity;BMP_temperature;BMP_pressure;BME280_temperature;BME280_humidity;BME280_pressure;Samples;Min_cycle;Max_cycle;Signal;HPM_P1;HPM_P2
2022/10/10 00:00:36;;;;;;;12.43;9.75;;;;;;;8.27;87.08;101410.91;5047013;28;20037;-71
2022/10/10 00:03:02;;;;;;;12.23;9.50;;;;;;;8.26;87.28;101409.19;5046103;28;20674;-71
2022/10/10 00:05:27;;;;;;;13.90;9.60;;;;;;;8.24;87.09;101403.09;5046898;28;20040;-70
2022/10/10 00:07:52;;;;;;;12.70;9.43;;;;;;;8.22;87.21;101408.75;5047468;28;20053;-71
2022/10/10 00:10:18;;;;;;;13.07;9.52;;;;;;;8.20;87.31;101405.38;5048610;28;20479;-71
2022/10/10 00:12:43;;;;;;;13.82;10.48;;;;;;;8.21;87.21;101396.13;5047857;28;20048;-70
2022/10/10 00:15:11;;;;;;;15.43;9.73;;;;;;;8.19;87.65;101409.16;5046323;28;20082;-69
2022/10/10 00:17:36;;;;;;;13.27;9.35;;;;;;;8.22;87.55;101397.81;5048144;28;20063;-70
2022/10/10 00:20:01;;;;;;;14.38;9.60;;;;;;;8.20;87.93;101399.06;5047368;28;20112;-71
2022/10/10 00:22:27;;;;;;;12.75;9.68;;;;;;;8.19;88.21;101397.38;5048238;28;20037;-70
2022/10/10 00:24:52;;;;;;;12.70;10.02;;;;;;;8.15;87.42;101391.44;5046948;28;20029;-71
2022/10/10 00:27:17;;;;;;;13.63;9.63;;;;;;;8.13;87.63;101390.81;5048083;28;20475;-70
2022/10/10 00:29:42;;;;;;;12.85;9.65;;;;;;;8.11;88.39;101392.03;5046928;28;20017;-71
2022/10/10 00:32:08;;;;;;;13.85;9.23;;;;;;;8.08;87.99;101396.03;5047443;28;20037;-72
2022/10/10 00:34:33;;;;;;;13.27;9.52;;;;;;;8.07;88.30;101388.88;5045308;28;20029;-72
2022/10/10 00:36:58;;;;;;;14.77;9.75;;;;;;;8.07;88.27;101391.63;5047018;28;20496;-71
2022/10/10 00:39:23;;;;;;;12.05;9.20;;;;;;;8.03;88.16;101393.06;5047295;28;20079;-70
2022/10/10 00:41:49;;;;;;;12.35;9.45;;;;;;;7.99;88.66;101391.78;5046807;28;20033;-70
2022/10/10 00:44:15;;;;;;;13.00;9.60;;;;;;;7.96;89.13;101387.56;5045943;28;20737;-71
2022/10/10 00:46:41;;;;;;;12.13;9.30;;;;;;;7.97;89.00;101389.25;5047130;28;20036;-71
2022/10/10 00:49:19;;;;;;;12.95;9.10;;;;;;;7.97;89.27;101383.78;5047258;28;20033;-71
2022/10/10 00:51:47;;;;;;;12.57;9.32;;;;;;;7.95;89.11;101383.13;5047517;28;20033;-71
2022/10/10 00:54:15;;;;;;;15.30;9.77;;;;;;;7.93;88.79;101384.38;5047161;28;20069;-70
2022/10/10 00:56:56;;;;;;;12.55;9.45;;;;;;;7.96;89.22;101373.03;5028669;28;20029;-71
2022/10/10 00:59:24;;;;;;;12.10;9.50;;;;;;;7.89;89.47;101374.88;5046561;28;20048;-71
2022/10/10 01:01:50;;;;;;;12.10;9.30;;;;;;;7.91;89.08;101373.66;5046747;28;20118;-70
2022/10/10 01:04:32;;;;;;;14.15;9.63;;;;;;;7.90;89.37;101371.94;5045702;28;20064;-70
2022/10/10 01:06:59;;;;;;;14.43;9.82;;;;;;;7.85;89.36;101377.16;5046454;28;20032;-71
2022/10/10 01:09:26;;;;;;;13.63;9.75;;;;;;;7.81;89.17;101362.22;5047430;28;20502;-71
2022/10/10 01:12:09;;;;;;;12.07;9.40;;;;;;;7.83;89.32;101371.06;5047037;28;20047;-70
2022/10/10 01:14:45;;;;;;;13.75;10.43;;;;;;;7.75;89.54;101369.31;5046544;28;20041;-71
2022/10/10 01:17:16;;;;;;;15.77;10.05;;;;;;;7.73;89.61;101363.19;5046872;28;20021;-71
2022/10/10 01:20:00;;;;;;;13.45;9.75;;;;;;;7.73;89.64;101362.34;5027657;28;20040;-70
2022/10/10 01:22:44;;;;;;;15.18;10.23;;;;;;;7.72;89.97;101357.94;5027660;28;20036;-70
2022/10/10 01:25:24;;;;;;;15.18;10.20;;;;;;;7.69;89.47;101361.06;5035839;28;20426;-70
2022/10/10 01:28:00;;;;;;;13.20;9.20;;;;;;;7.70;89.92;101360.00;5047022;28;20090;-69
2022/10/10 01:30:25;;;;;;;13.55;10.05;;;;;;;7.65;89.83;101357.88;5045574;28;20036;-70
2022/10/10 01:33:07;;;;;;;13.23;10.35;;;;;;;7.68;90.11;101360.22;5046315;28;20033;-71
2022/10/10 01:35:54;;;;;;;14.73;10.00;;;;;;;7.70;90.22;101357.28;5046280;28;20032;-70
2022/10/10 01:38:42;;;;;;;12.52;9.60;;;;;;;7.68;89.97;101354.75;5046752;28;20043;-71
2022/10/10 01:41:07;;;;;;;;;;;;;;;7.74;88.07;101351.22;5047166;28;20033;-70
2022/10/10 01:43:34;;;;;;;14.18;10.50;;;;;;;7.60;90.16;101351.31;5047121;28;19913;-70
2022/10/10 01:46:09;;;;;;;16.70;9.52;;;;;;;7.58;90.60;101351.53;5045952;28;20789;-71
2022/10/10 01:48:34;;;;;;;13.55;9.48;;;;;;;7.55;90.43;101340.97;5047217;28;20037;-69
2022/10/10 01:51:21;;;;;;;14.77;10.70;;;;;;;7.57;90.56;101341.63;5044683;28;20039;-70
2022/10/10 01:54:02;;;;;;;13.32;10.27;;;;;;;7.54;91.50;101342.88;5047362;28;20356;-70
2022/10/10 01:56:36;;;;;;;13.32;9.80;;;;;;;7.58;91.45;101339.75;5047164;28;20052;-71
2022/10/10 01:59:16;;;;;;;14.50;10.15;;;;;;;7.53;91.63;101332.13;5045482;28;20032;-70
2022/10/10 02:02:04;;;;;;;15.00;10.23;;;;;;;7.55;91.50;101335.50;5045238;28;20091;-71
2022/10/10 02:04:45;;;;;;;15.15;10.43;;;;;;;7.56;91.45;101333.66;5046678;28;20087;-70
2022/10/10 02:07:20;;;;;;;13.48;9.90;;;;;;;7.55;91.71;101332.78;5045889;28;20035;-72
2022/10/10 02:09:46;;;;;;;14.18;9.98;;;;;;;7.56;91.24;101330.91;5028938;28;20480;-70
2022/10/10 02:12:13;;;;;;;12.43;9.82;;;;;;;7.54;91.72;101317.41;5045596;28;20064;-70
2022/10/10 02:14:45;;;;;;;13.38;10.07;;;;;;;7.51;91.98;101324.16;5046213;28;20059;-71
2022/10/10 02:17:13;;;;;;;12.18;9.75;;;;;;;7.53;91.62;101315.75;5046016;28;20119;-70
2022/10/10 02:19:44;;;;;;;15.52;9.55;;;;;;;7.49;91.86;101320.75;5047131;28;20037;-72
2022/10/10 02:22:10;;;;;;;12.77;9.43;;;;;;;7.49;91.65;101314.44;5045829;28;20082;-70
2022/10/10 02:24:35;;;;;;;15.68;9.77;;;;;;;7.48;91.84;101316.34;5046137;28;20033;-72
2022/10/10 02:27:07;;;;;;;13.15;9.63;;;;;;;7.43;92.03;101320.72;5046068;28;20111;-71
2022/10/10 02:29:36;;;;;;;12.35;9.90;;;;;;;7.44;92.27;101312.31;5045884;28;20039;-71
2022/10/10 02:32:01;;;;;;;13.13;9.32;;;;;;;7.41;92.11;101315.44;5044353;28;20059;-71
2022/10/10 02:34:33;;;;;;;13.00;10.20;;;;;;;7.41;92.33;101315.44;5046354;28;20069;-71
2022/10/10 02:37:05;;;;;;;12.77;9.52;;;;;;;7.40;91.88;101307.44;5045890;28;20268;-71
2022/10/10 02:39:34;;;;;;;16.00;9.77;;;;;;;7.37;92.33;101311.41;5046385;28;20040;-72
2022/10/10 02:42:03;;;;;;;12.30;9.75;;;;;;;7.34;92.40;101300.03;5027506;28;20036;-71
2022/10/10 02:44:29;;;;;;;11.68;9.00;;;;;;;7.35;92.63;101296.25;5045845;28;20037;-71
2022/10/10 02:46:54;;;;;;;15.00;10.23;;;;;;;7.31;92.35;101293.09;5046147;28;20029;-71
2022/10/10 02:49:29;;;;;;;14.75;10.00;;;;;;;7.32;92.46;101292.03;5046011;28;20036;-70
2022/10/10 02:51:54;;;;;;;12.95;8.93;;;;;;;7.28;92.66;101294.31;5045593;28;20017;-70
2022/10/10 02:54:19;;;;;;;12.38;10.02;;;;;;;7.25;92.88;101288.44;5045462;28;20387;-71
2022/10/10 02:56:45;;;;;;;12.43;8.80;;;;;;;7.26;92.86;101284.66;5046081;28;20395;-71
2022/10/10 02:59:10;;;;;;;12.02;9.50;;;;;;;7.26;93.08;101288.22;5045267;28;20029;-70
2022/10/10 03:01:35;;;;;;;13.82;9.38;;;;;;;7.31;93.20;101279.44;5044883;28;20098;-71
2022/10/10 03:04:01;;;;;;;14.30;9.10;;;;;;;7.30;93.25;101283.22;5049963;28;20542;-71
2022/10/10 03:06:26;;;;;;;13.95;9.38;;;;;;;7.27;93.25;101281.72;5049297;28;20029;-70
2022/10/10 03:08:52;;;;;;;13.18;9.60;;;;;;;7.28;93.57;101277.91;5049491;28;20044;-70
2022/10/10 03:11:17;;;;;;;13.30;9.13;;;;;;;7.25;94.08;101278.34;5049772;28;20037;-71
2022/10/10 03:13:42;;;;;;;12.07;9.02;;;;;;;7.31;93.74;101278.59;5049341;28;20585;-71
2022/10/10 03:16:07;;;;;;;13.80;9.68;;;;;;;7.31;93.55;101275.84;5049569;28;20275;-71
2022/10/10 03:18:33;;;;;;;13.55;9.27;;;;;;;7.32;93.72;101272.91;5050047;28;20059;-71
2022/10/10 03:20:58;;;;;;;12.02;8.95;;;;;;;7.32;93.35;101285.72;5048250;28;20036;-70
2022/10/10 03:23:24;;;;;;;13.18;9.15;;;;;;;7.29;93.99;101276.88;5050163;28;20043;-70
2022/10/10 03:25:50;;;;;;;14.52;9.30;;;;;;;7.31;93.99;101275.84;5049402;28;20021;-71
2022/10/10 03:28:15;;;;;;;12.32;9.13;;;;;;;7.32;93.91;101261.97;5050214;28;20029;-71
2022/10/10 03:30:41;;;;;;;15.30;9.75;;;;;;;7.31;93.89;101267.66;5047286;28;20065;-72
2022/10/10 03:33:07;;;;;;;12.30;9.02;;;;;;;7.28;94.35;101272.47;5049295;28;20529;-70
2022/10/10 03:35:33;;;;;;;11.82;9.68;;;;;;;7.26;94.22;101271.81;5048826;28;20467;-70
2022/10/10 03:37:59;;;;;;;12.35;9.77;;;;;;;7.27;94.14;101273.50;5049486;28;20108;-70
2022/10/10 03:40:26;;;;;;;14.07;9.52;;;;;;;7.22;94.26;101270.53;5049851;28;20175;-71
2022/10/10 03:42:51;;;;;;;11.60;9.18;;;;;;;7.20;93.95;101278.09;5048730;28;20120;-71
2022/10/10 03:45:17;;;;;;;12.57;9.18;;;;;;;7.15;94.01;101280.56;5048820;28;20163;-71
2022/10/10 03:47:42;;;;;;;10.73;8.68;;;;;;;7.12;94.22;101270.03;5049482;28;20078;-70
2022/10/10 03:50:08;;;;;;;12.40;8.73;;;;;;;7.08;94.27;101276.91;5048371;28;20083;-71
2022/10/10 03:52:33;;;;;;;11.82;9.43;;;;;;;7.10;94.58;101276.75;5048919;28;20047;-70
2022/10/10 03:54:58;;;;;;;12.07;8.57;;;;;;;7.09;94.88;101275.88;5047893;28;20063;-71
2022/10/10 03:57:24;;;;;;;11.85;9.10;;;;;;;7.10;95.11;101282.22;5049130;28;20028;-71
2022/10/10 03:59:49;;;;;;;12.85;9.63;;;;;;;7.04;94.64;101278.34;5048222;28;20078;-71
2022/10/10 04:02:14;;;;;;;14.00;9.32;;;;;;;6.97;94.46;101267.38;5048942;28;20024;-70
2022/10/10 04:04:40;;;;;;;12.63;8.63;;;;;;;6.95;95.04;101274.09;5048331;28;20029;-71
2022/10/10 04:07:05;;;;;;;12.23;9.43;;;;;;;6.92;95.03;101271.75;5048140;28;20028;-71
2022/10/10 04:09:30;;;;;;;15.25;9.13;;;;;;;6.87;94.88;101272.34;5048743;28;20095;-71
2022/10/10 04:11:56;;;;;;;11.90;9.30;;;;;;;6.80;94.81;101268.72;5048504;28;20032;-71
2022/10/10 04:14:21;;;;;;;11.98;8.68;;;;;;;6.81;94.82;101261.34;5047136;28;20040;-71
2022/10/10 04:16:46;;;;;;;13.45;9.55;;;;;;;6.73;94.50;101265.91;5047434;28;20423;-70
2022/10/10 04:19:11;;;;;;;13.95;9.18;;;;;;;6.70;95.18;101266.31;5048559;28;20029;-71
2022/10/10 04:21:37;;;;;;;12.90;9.77;;;;;;;6.63;95.09;101273.56;5048247;28;20407;-72
2022/10/10 04:24:02;;;;;;;12.93;9.57;;;;;;;6.60;95.13;101275.84;5048671;28;20082;-71
2022/10/10 04:26:28;;;;;;;11.52;8.60;;;;;;;6.60;95.62;101267.66;5048596;28;20055;-71
2022/10/10 04:28:53;;;;;;;13.63;9.98;;;;;;;6.56;95.89;101269.09;5046747;28;20065;-72
2022/10/10 04:31:18;;;;;;;12.32;8.95;;;;;;;6.51;96.04;101269.66;5048822;28;20069;-70
2022/10/10 04:33:43;;;;;;;14.52;9.80;;;;;;;6.46;96.43;101272.13;5048491;28;20041;-71
2022/10/10 04:36:09;;;;;;;12.25;9.35;;;;;;;6.41;96.77;101269.97;5046946;28;20033;-71
2022/10/10 04:38:34;;;;;;;13.45;9.38;;;;;;;6.40;97.07;101275.63;5048419;28;20018;-71
2022/10/10 04:41:00;;;;;;;11.57;9.00;;;;;;;6.39;97.44;101271.22;5047042;28;20020;-69
2022/10/10 04:43:25;;;;;;;14.57;9.63;;;;;;;6.34;97.18;101262.78;5047617;28;20037;-70
2022/10/10 04:45:50;;;;;;;12.57;9.68;;;;;;;6.29;97.29;101266.06;5047756;28;20017;-69
2022/10/10 04:48:15;;;;;;;13.98;9.48;;;;;;;6.27;97.58;101270.03;5048507;28;20106;-70
2022/10/10 04:50:41;;;;;;;15.00;9.73;;;;;;;6.22;97.98;101274.16;5047526;28;20377;-70
2022/10/10 04:53:06;;;;;;;12.73;8.93;;;;;;;6.16;97.97;101272.22;5045801;28;20025;-70
2022/10/10 04:55:31;;;;;;;14.75;10.00;;;;;;;6.12;97.63;101264.59;5045900;28;20021;-69
2022/10/10 04:57:57;;;;;;;13.40;9.43;;;;;;;6.08;97.95;101260.56;5045313;28;20029;-70
2022/10/10 05:00:22;;;;;;;11.05;9.30;;;;;;;6.07;98.33;101267.88;5044815;28;20037;-69
2022/10/10 05:02:47;;;;;;;13.60;10.20;;;;;;;6.05;98.75;101267.25;5045832;28;20112;-69
2022/10/10 05:05:13;;;;;;;13.32;10.23;;;;;;;6.03;98.84;101263.00;5042784;28;20104;-69
2022/10/10 05:07:38;;;;;;;13.50;8.98;;;;;;;6.01;98.92;101255.03;5043028;28;20538;-70
2022/10/10 05:10:05;;;;;;;13.25;9.60;;;;;;;5.98;98.97;101260.84;5042793;28;20052;-70
2022/10/10 05:12:31;;;;;;;13.02;9.88;;;;;;;5.97;99.07;101259.16;5045618;28;20025;-69
2022/10/10 05:14:56;;;;;;;13.68;9.23;;;;;;;5.96;99.16;101260.22;5043792;28;20539;-70
2022/10/10 05:17:21;;;;;;;14.30;9.45;;;;;;;5.94;99.33;101260.41;5027326;28;20040;-69
2022/10/10 05:19:47;;;;;;;14.45;8.95;;;;;;;5.96;99.13;101260.22;5045098;28;20329;-70
2022/10/10 05:22:12;;;;;;;12.52;8.68;;;;;;;5.92;99.33;101250.72;5044285;28;20106;-69
2022/10/10 05:24:39;;;;;;;11.68;9.02;;;;;;;5.90;99.35;101264.50;5044676;28;20025;-71
2022/10/10 05:27:04;;;;;;;11.63;9.02;;;;;;;5.87;99.41;101253.13;5044793;28;20021;-69
2022/10/10 05:29:29;;;;;;;12.07;8.82;;;;;;;5.88;100.00;101263.88;5044408;28;20545;-70
2022/10/10 05:31:55;;;;;;;12.82;9.75;;;;;;;5.85;100.00;101255.22;5043079;28;20294;-70
2022/10/10 05:34:20;;;;;;;12.90;10.10;;;;;;;5.83;100.00;101263.59;5044828;28;20033;-70
2022/10/10 05:36:45;;;;;;;14.98;9.55;;;;;;;5.83;100.00;101270.91;5044841;28;20533;-70
2022/10/10 05:39:11;;;;;;;13.45;9.18;;;;;;;5.80;100.00;101263.13;5044635;28;20025;-70
2022/10/10 05:41:36;;;;;;;11.05;9.30;;;;;;;5.78;100.00;101267.88;5044705;28;20079;-69
2022/10/10 05:44:01;;;;;;;13.48;9.43;;;;;;;5.76;100.00;101261.78;5043018;28;20025;-69
2022/10/10 05:46:26;;;;;;;14.98;9.82;;;;;;;5.73;100.00;101266.59;5044832;28;20321;-69
2022/10/10 05:48:52;;;;;;;11.60;9.70;;;;;;;5.78;100.00;101267.88;5044394;28;20479;-67
2022/10/10 05:51:19;;;;;;;11.98;10.00;;;;;;;5.76;100.00;101262.63;5044382;28;20032;-70
2022/10/10 05:53:45;;;;;;;12.07;9.55;;;;;;;5.81;100.00;101267.53;5045163;28;20139;-69
2022/10/10 05:56:10;;;;;;;14.27;9.18;;;;;;;5.79;100.00;101262.28;5042385;28;20491;-69
2022/10/10 05:58:36;;;;;;;12.27;9.25;;;;;;;5.84;100.00;101264.44;5043939;28;20059;-69
2022/10/10 06:01:05;;;;;;;11.30;8.98;;;;;;;5.84;100.00;101270.72;5043874;28;20480;-70
2022/10/10 06:03:31;;;;;;;14.10;9.00;;;;;;;5.88;100.00;101263.88;5044494;28;20025;-68
2022/10/10 06:05:56;;;;;;;13.30;9.25;;;;;;;5.88;100.00;101260.28;5043657;28;20391;-69
2022/10/10 06:08:22;;;;;;;10.75;8.63;;;;;;;5.90;100.00;101260.94;5043095;28;20575;-69
2022/10/10 06:10:47;;;;;;;12.20;8.98;;;;;;;5.96;100.00;101268.38;5044886;28;20025;-69
2022/10/10 06:13:15;;;;;;;13.10;8.55;;;;;;;5.94;100.00;101265.88;5043029;28;20135;-69
2022/10/10 06:15:41;;;;;;;11.57;8.55;;;;;;;6.01;100.00;101270.56;5044276;28;20126;-68
2022/10/10 06:18:07;;;;;;;11.60;8.68;;;;;;;6.05;100.00;101272.72;5043573;28;20487;-69
2022/10/10 06:20:34;;;;;;;11.18;8.32;;;;;;;6.10;100.00;101264.78;5042045;28;20025;-69
2022/10/10 06:22:59;;;;;;;12.82;8.98;;;;;;;6.14;100.00;101277.03;5044040;28;20037;-69
2022/10/10 06:25:24;;;;;;;12.30;8.95;;;;;;;6.16;100.00;101274.94;5043901;28;20027;-67
2022/10/10 06:27:50;;;;;;;10.52;8.75;;;;;;;6.18;100.00;101272.88;5042163;28;20361;-68
2022/10/10 06:30:15;;;;;;;12.77;8.77;;;;;;;6.22;100.00;101278.78;5043394;28;20043;-69
2022/10/10 06:32:41;;;;;;;11.45;8.93;;;;;;;6.26;100.00;101281.97;5043982;28;20033;-68
2022/10/10 06:35:06;;;;;;;12.48;8.70;;;;;;;6.35;100.00;101281.66;5043120;28;20384;-69
2022/10/10 06:37:32;;;;;;;11.30;8.90;;;;;;;6.44;100.00;101285.13;5042935;28;20494;-69
2022/10/10 06:39:57;;;;;;;12.88;8.45;;;;;;;6.47;100.00;101282.84;5043672;28;20036;-68
2022/10/10 06:42:22;;;;;;;11.25;8.38;;;;;;;6.50;100.00;101289.81;5042734;28;20033;-70
2022/10/10 06:44:48;;;;;;;13.25;8.60;;;;;;;6.56;100.00;101280.84;5042989;28;20314;-70
2022/10/10 06:47:13;;;;;;;11.00;8.43;;;;;;;6.59;100.00;101280.47;5044113;28;20725;-70
2022/10/10 06:49:38;;;;;;;9.88;8.02;;;;;;;6.66;100.00;101283.25;5042491;28;20036;-70
2022/10/10 06:52:03;;;;;;;13.48;8.50;;;;;;;6.71;100.00;101287.09;5042343;28;20464;-71
2022/10/10 06:54:29;;;;;;;12.30;8.95;;;;;;;6.77;100.00;101293.66;5042608;28;20069;-71
2022/10/10 06:56:54;;;;;;;11.50;9.50;;;;;;;6.85;100.00;101295.41;5041762;28;20464;-69
2022/10/10 06:59:19;;;;;;;13.07;8.43;;;;;;;6.95;100.00;101285.84;5043192;28;20021;-70
2022/10/10 07:01:45;;;;;;;14.02;8.95;;;;;;;7.08;100.00;101284.28;5043539;28;20096;-71
2022/10/10 07:04:11;;;;;;;14.95;9.80;;;;;;;7.27;100.00;101289.06;5043430;28;20448;-70
2022/10/10 07:06:37;;;;;;;15.23;10.07;;;;;;;7.54;100.00;101287.34;5043205;28;20018;-70
2022/10/10 07:09:03;;;;;;;15.95;10.27;;;;;;;7.75;100.00;101291.91;5042429;28;20047;-70
2022/10/10 07:11:29;;;;;;;16.70;10.43;;;;;;;7.94;100.00;101293.06;5043121;28;20033;-70
2022/10/10 07:13:54;;;;;;;16.40;10.10;;;;;;;8.10;100.00;101287.25;5041300;28;20035;-69
2022/10/10 07:16:19;;;;;;;15.38;10.30;;;;;;;8.30;100.00;101287.31;5043649;28;20430;-70
2022/10/10 07:18:45;;;;;;;13.68;9.75;;;;;;;8.47;100.00;101290.59;5042449;28;20032;-69
2022/10/10 07:21:10;;;;;;;13.48;8.73;;;;;;;8.66;100.00;101295.25;5039279;28;20031;-67
2022/10/10 07:23:36;;;;;;;12.35;8.02;;;;;;;8.84;100.00;101291.94;5029691;28;20084;-69
2022/10/10 07:26:04;;;;;;;14.63;8.52;;;;;;;9.01;100.00;101292.38;5032295;28;20026;-69
2022/10/10 07:28:30;;;;;;;16.92;8.52;;;;;;;9.19;100.00;101289.84;5031324;28;20060;-69
2022/10/10 07:31:04;;;;;;;13.95;8.40;;;;;;;9.36;100.00;101291.09;5027717;28;20561;-69
2022/10/10 07:33:35;;;;;;;13.88;8.25;;;;;;;9.56;99.32;101299.31;5033382;28;20356;-69
2022/10/10 07:36:00;;;;;;;14.00;9.00;;;;;;;9.71;98.89;101301.81;5033146;28;20578;-67
2022/10/10 07:38:25;;;;;;;16.70;8.05;;;;;;;9.85;98.28;101294.41;5030381;28;20163;-68
2022/10/10 07:40:51;;;;;;;11.88;8.00;;;;;;;10.01;97.50;101299.41;5016814;28;20025;-68
2022/10/10 07:43:16;;;;;;;15.02;8.80;;;;;;;10.17;96.60;101303.59;5034702;28;20029;-68
2022/10/10 07:45:41;;;;;;;11.02;8.05;;;;;;;10.34;96.00;101309.44;5031128;28;20029;-69
2022/10/10 07:48:07;;;;;;;13.32;7.88;;;;;;;10.51;95.46;101313.41;5031815;28;20029;-68
2022/10/10 07:50:32;;;;;;;12.93;8.10;;;;;;;10.64;94.38;101315.22;5029008;28;20389;-69
2022/10/10 07:52:57;;;;;;;12.77;8.27;;;;;;;10.76;93.72;101327.22;5037053;28;20052;-69
2022/10/10 07:55:23;;;;;;;13.88;8.70;;;;;;;10.88;94.46;101325.44;5038008;28;20029;-69
2022/10/10 07:57:49;;;;;;;13.73;8.43;;;;;;;11.01;93.02;101319.03;5042127;28;20043;-68
2022/10/10 08:00:15;;;;;;;14.35;8.70;;;;;;;11.17;93.57;101326.72;5037777;28;20029;-70
2022/10/10 08:02:41;;;;;;;15.27;7.85;;;;;;;11.30;91.99;101327.69;5046366;28;20032;-68
2022/10/10 08:05:06;;;;;;;11.23;7.82;;;;;;;11.39;92.04;101337.34;5041388;28;20032;-69
2022/10/10 08:07:32;;;;;;;13.15;7.65;;;;;;;11.52;91.51;101339.16;5043736;28;20029;-68
2022/10/10 08:09:57;;;;;;;14.38;7.72;;;;;;;11.74;90.81;101340.41;5045344;28;20044;-69
2022/10/10 08:12:22;;;;;;;11.90;7.63;;;;;;;11.89;88.96;101338.16;5038961;28;20494;-69
2022/10/10 08:14:48;;;;;;;14.35;7.97;;;;;;;11.95;87.96;101334.50;5040840;28;20037;-69
2022/10/10 08:17:13;;;;;;;15.13;7.97;;;;;;;12.02;88.52;101330.88;5043755;28;20037;-68
2022/10/10 08:19:38;;;;;;;15.07;7.88;;;;;;;12.08;87.38;101327.19;5038842;28;20115;-69
2022/10/10 08:22:04;;;;;;;12.38;7.70;;;;;;;12.17;86.76;101323.91;5036871;28;20498;-69
2022/10/10 08:24:29;;;;;;;13.48;7.90;;;;;;;12.27;87.11;101325.28;5035017;28;20082;-67
2022/10/10 08:26:55;;;;;;;15.07;8.32;;;;;;;12.39;86.20;101328.94;5041826;28;20587;-68
2022/10/10 08:29:20;;;;;;;16.90;8.45;;;;;;;12.44;86.02;101326.31;5041616;28;20107;-68
2022/10/10 08:31:45;;;;;;;15.23;8.68;;;;;;;12.46;85.49;101329.69;5032035;28;20088;-68
2022/10/10 08:34:12;;;;;;;13.98;8.32;;;;;;;12.49;86.73;101340.25;5031924;28;20028;-68
2022/10/10 08:36:37;;;;;;;13.43;8.27;;;;;;;12.56;85.21;101326.38;5037132;28;20107;-68
2022/10/10 08:39:02;;;;;;;15.07;8.40;;;;;;;12.71;84.88;101332.31;5037276;28;20025;-68
2022/10/10 08:41:38;;;;;;;15.65;8.57;;;;;;;13.04;84.53;101339.28;5036295;28;20376;-69
2022/10/10 08:44:21;;;;;;;12.18;7.97;;;;;;;13.39;82.46;101333.88;5030974;28;20029;-68
2022/10/10 08:46:52;;;;;;;15.38;9.10;;;;;;;13.92;80.17;101325.50;5029324;28;20423;-68
2022/10/10 08:49:58;;;;;;;15.75;9.40;;;;;;;14.81;78.18;101325.19;5034030;28;20029;-68
2022/10/10 08:52:33;;;;;;;27.80;10.15;;;;;;;15.80;71.25;101321.91;4994071;28;20044;-68
2022/10/10 08:55:01;;;;;;;15.30;8.45;;;;;;;16.14;69.24;101325.47;5030468;28;20045;-67
2022/10/10 08:57:34;;;;;;;15.40;8.73;;;;;;;16.90;69.57;101333.91;5033301;28;20408;-68
2022/10/10 09:00:04;;;;;;;15.98;9.80;;;;;;;17.75;64.57;101328.59;5032719;28;20033;-68
2022/10/10 09:02:50;;;;;;;15.73;8.93;;;;;;;18.21;62.87;101318.59;5038721;28;20501;-68
2022/10/10 09:05:19;;;;;;;15.48;9.73;;;;;;;19.19;59.66;101329.78;5043022;28;20545;-68
2022/10/10 09:08:02;;;;;;;15.00;8.50;;;;;;;20.73;58.29;101328.44;5040136;28;20032;-68
2022/10/10 09:10:53;;;;;;;14.38;7.85;;;;;;;20.78;52.70;101332.31;5038671;28;20107;-68
2022/10/10 09:13:38;;;;;;;12.10;7.60;;;;;;;20.43;55.70;101342.50;5037100;28;20059;-68
2022/10/10 09:16:32;;;;;;;14.30;7.40;;;;;;;20.21;56.31;101345.63;5036453;28;20024;-67
2022/10/10 09:19:39;;;;;;;12.95;7.07;;;;;;;19.89;57.03;101344.03;5031491;28;20033;-68
2022/10/10 09:22:12;;;;;;;15.77;8.50;;;;;;;20.30;54.56;101343.09;4995164;28;20047;-67
2022/10/10 09:24:50;;;;;;;14.00;7.35;;;;;;;21.35;54.15;101344.84;5039805;28;20701;-68
2022/10/10 09:27:19;;;;;;;;;;;;;;;22.07;53.93;101343.06;5025066;28;20055;-68
2022/10/10 09:29:55;;;;;;;13.88;7.28;;;;;;;21.69;51.09;101337.25;5041374;28;19921;-68
2022/10/10 09:32:32;;;;;;;12.02;6.68;;;;;;;21.93;51.85;101350.47;5033705;28;20711;-68
2022/10/10 09:35:15;;;;;;;11.87;6.10;;;;;;;21.83;49.99;101358.97;5044988;28;20132;-68
2022/10/10 09:37:43;;;;;;;10.95;6.82;;;;;;;21.65;49.98;101352.97;5031481;28;20037;-68
2022/10/10 09:40:33;;;;;;;12.60;6.90;;;;;;;21.37;52.80;101359.34;5033178;28;20674;-68
2022/10/10 09:43:08;;;;;;;16.48;7.20;;;;;;;20.35;52.41;101355.06;5032863;28;20033;-68
2022/10/10 09:45:40;;;;;;;14.68;7.30;;;;;;;19.67;54.55;101366.63;5032285;28;20041;-67
2022/10/10 09:48:09;;;;;;;12.20;6.35;;;;;;;19.25;55.36;101374.34;5034852;28;20819;-68
2022/10/10 09:50:35;;;;;;;16.30;7.25;;;;;;;18.82;56.92;101374.53;5032920;28;20040;-68
2022/10/10 09:53:01;;;;;;;13.23;6.60;;;;;;;18.63;58.55;101371.34;5028634;28;20048;-68
2022/10/10 09:55:35;;;;;;;12.57;6.97;;;;;;;18.66;58.71;101372.78;5032528;28;20029;-68
2022/10/10 09:58:15;;;;;;;13.10;6.32;;;;;;;18.64;58.53;101378.59;5035201;28;20029;-68
2022/10/10 10:00:40;;;;;;;11.77;6.20;;;;;;;18.13;59.40;101386.66;5033935;28;20043;-67
2022/10/10 10:03:23;;;;;;;12.10;6.15;;;;;;;17.72;61.42;101381.88;5035219;28;21104;-68
2022/10/10 10:05:56;;;;;;;11.68;6.65;;;;;;;17.25;63.95;101388.97;5031041;28;20178;-68
2022/10/10 10:08:25;;;;;;;16.30;6.70;;;;;;;16.96;65.49;101380.03;5032174;28;20041;-68
2022/10/10 10:10:51;;;;;;;11.57;6.40;;;;;;;16.77;65.81;101387.03;5034096;28;20690;-68
2022/10/10 10:13:24;;;;;;;12.10;6.38;;;;;;;16.60;66.69;101379.59;5032002;28;20025;-68
2022/10/10 10:15:58;;;;;;;16.15;7.18;;;;;;;16.46;66.64;101383.84;5029989;28;20437;-68
2022/10/10 10:18:28;;;;;;;18.55;7.95;;;;;;;16.45;66.81;101379.38;5038423;28;20488;-68
2022/10/10 10:21:11;;;;;;;18.33;6.97;;;;;;;16.48;67.38;101378.06;5032175;28;20032;-68
2022/10/10 10:24:10;;;;;;;13.48;6.78;;;;;;;16.51;67.56;101391.38;5035053;28;20060;-68
2022/10/10 10:26:45;;;;;;;15.43;6.95;;;;;;;16.54;67.54;101394.47;5014864;28;20487;-68
2022/10/10 10:29:23;;;;;;;14.35;6.38;;;;;;;16.99;66.77;101389.78;5030592;28;20054;-68
2022/10/10 10:31:53;;;;;;;15.38;6.68;;;;;;;18.30;62.79;101380.13;5032396;28;20108;-68
2022/10/10 10:34:33;;;;;;;16.92;7.20;;;;;;;19.77;58.28;101374.16;5039768;28;20478;-68
2022/10/10 10:37:07;;;;;;;15.60;6.50;;;;;;;21.62;53.80;101380.69;5032941;28;20041;-68
2022/10/10 10:39:48;;;;;;;13.40;5.57;;;;;;;22.58;48.58;101386.47;5035302;28;20472;-67
2022/10/10 10:42:36;;;;;;;11.60;6.72;;;;;;;22.14;50.75;101388.31;5032276;28;20135;-68
2022/10/10 10:45:11;;;;;;;14.38;5.93;;;;;;;21.83;49.81;101400.91;5033441;28;20044;-68
2022/10/10 10:48:02;;;;;;;11.50;5.95;;;;;;;21.33;52.37;101397.38;5029137;28;20040;-67
2022/10/10 10:50:46;;;;;;;12.18;5.63;;;;;;;20.35;54.20;101398.88;5034332;28;20030;-68
2022/10/10 10:53:23;;;;;;;15.57;6.00;;;;;;;20.05;54.56;101402.56;5034059;28;20032;-68
2022/10/10 10:56:04;;;;;;;11.93;5.60;;;;;;;20.69;53.44;101405.50;5027295;28;20130;-68
2022/10/10 10:59:00;;;;;;;11.35;4.90;;;;;;;21.88;50.96;101421.25;5027514;28;20024;-68
2022/10/10 11:01:34;;;;;;;10.98;5.07;;;;;;;22.96;46.99;101409.78;5027539;28;20036;-68
2022/10/10 11:04:11;;;;;;;12.23;5.50;;;;;;;23.47;45.57;101411.88;5023909;28;20045;-67
2022/10/10 11:07:00;;;;;;;10.98;5.35;;;;;;;22.57;46.54;101422.03;5026503;28;20025;-67
2022/10/10 11:09:41;;;;;;;11.23;4.78;;;;;;;21.89;50.42;101427.69;5028610;28;20041;-68
2022/10/10 11:12:18;;;;;;;11.32;5.18;;;;;;;21.43;50.63;101422.44;5006629;28;20112;-68
2022/10/10 11:14:59;;;;;;;12.52;5.50;;;;;;;21.42;52.25;101429.16;5032021;28;20102;-68
2022/10/10 11:17:36;;;;;;;12.02;5.43;;;;;;;21.90;49.17;101429.38;5026373;28;20037;-68
2022/10/10 11:20:10;;;;;;;11.90;5.45;;;;;;;22.47;50.05;101436.13;5024584;28;20235;-68
2022/10/10 11:22:42;;;;;;;11.30;5.10;;;;;;;23.86;46.05;101434.00;5029865;28;20040;-68
2022/10/10 11:25:20;;;;;;;12.45;5.53;;;;;;;24.92;43.93;101437.94;5030544;28;20024;-68
2022/10/10 11:27:52;;;;;;;8.55;4.63;;;;;;;25.43;41.79;101436.84;5034031;28;20036;-68
2022/10/10 11:30:23;;;;;;;9.68;4.85;;;;;;;26.19;41.07;101439.78;5032680;28;20088;-68
2022/10/10 11:33:04;;;;;;;13.23;6.85;;;;;;;26.58;40.08;101433.38;5030561;28;20034;-68